Time;durP1;ratioP1;P1;durP2;ratioP2;P2;SDS_P1;SDS_P2;PMS_P1;PMS_P2;Temp;Humidity;BMP_temperature;BMP_pressure;BME280_temperature;BME280_humidity;BME280_pressure;Samples;Min_cycle;Max_cycle;Signal;HPM_P1;HPM_P2
2022/10/20 00:06:03;;;;;;;8.6;14.2;;;;;;;7.2;87.4;99810;;;;
2022/10/20 00:17:04;;;;;;;8.6;14.2;;;;;;;7.2;87.5;99810;;;;
2022/10/20 00:28:03;;;;;;;10.6;14.6;;;;;;;7;86.9;99810;;;;
2022/10/20 00:38:03;;;;;;;10.6;14.6;;;;;;;6.7;86.3;99820;;;;
2022/10/20 00:48:03;;;;;;;10.6;14.6;;;;;;;6.5;86.2;99810;;;;
2022/10/20 00:59:03;;;;;;;7.7;12.3;;;;;;;6.2;86.3;99800;;;;
2022/10/20 01:09:03;;;;;;;7.7;12.3;;;;;;;5.9;86.3;99800;;;;
2022/10/20 01:19:05;;;;;;;7.7;12.3;;;;;;;5.6;86;99800;;;;
2022/10/20 01:30:03;;;;;;;6.8;13.2;;;;;;;5.2;86.2;99800;;;;
2022/10/20 01:40:03;;;;;;;6.8;13.2;;;;;;;5;86.4;99800;;;;
2022/10/20 01:51:03;;;;;;;7.9;14.9;;;;;;;4.7;87.3;99800;;;;
2022/10/20 02:02:02;;;;;;;7.9;14.9;;;;;;;4.5;87.4;99800;;;;
2022/10/20 02:12:02;;;;;;;7.9;14.9;;;;;;;4.3;88.1;99800;;;;
2022/10/20 02:23:02;;;;;;;5.1;10.7;;;;;;;4.2;88;99800;;;;
2022/10/20 02:33:03;;;;;;;5.1;10.7;;;;;;;4.1;87.8;99820;;;;
2022/10/20 02:44:02;;;;;;;5.1;10.7;;;;;;;4;88;99810;;;;
2022/10/20 02:54:02;;;;;;;4.6;11.8;;;;;;;4.1;88.1;99820;;;;
2022/10/20 03:05:02;;;;;;;4.6;11.8;;;;;;;4;88;99820;;;;
2022/10/20 03:15:03;;;;;;;4.6;11.8;;;;;;;3.9;88.2;99830;;;;
2022/10/20 03:25:03;;;;;;;5.4;13.7;;;;;;;3.8;87.9;99840;;;;
2022/10/20 03:36:02;;;;;;;5.4;13.7;;;;;;;3.5;87.5;99850;;;;
2022/10/20 03:47:02;;;;;;;5.4;13.7;;;;;;;3.4;87.7;99860;;;;
2022/10/20 03:57:02;;;;;;;5;11.7;;;;;;;3.1;87.3;99860;;;;
2022/10/20 04:08:03;;;;;;;5;11.7;;;;;;;2.9;87.2;99860;;;;
2022/10/20 04:18:02;;;;;;;5;11.7;;;;;;;2.7;86.9;99860;;;;
2022/10/20 04:29:02;;;;;;;3.5;8.4;;;;;;;2.4;86.7;99860;;;;
2022/10/20 04:40:03;;;;;;;3.5;8.4;;;;;;;2.2;86.8;99860;;;;
2022/10/20 04:50:02;;;;;;;3;6.7;;;;;;;2.1;87;99860;;;;
2022/10/20 05:01:02;;;;;;;3;6.7;;;;;;;2;87.4;99850;;;;
2022/10/20 05:12:02;;;;;;;3;6.7;;;;;;;1.9;87.4;99860;;;;
2022/10/20 05:22:02;;;;;;;3.3;6.6;;;;;;;1.8;87.5;99870;;;;
2022/10/20 05:32:02;;;;;;;3.3;6.6;;;;;;;1.7;87.6;99870;;;;
2022/10/20 05:42:02;;;;;;;3.3;6.6;;;;;;;1.8;87.8;99880;;;;
2022/10/20 05:53:02;;;;;;;3.1;6.5;;;;;;;2;88.4;99890;;;;
2022/10/20 06:03:02;;;;;;;3.1;6.5;;;;;;;2.1;88.7;99900;;;;
2022/10/20 06:13:02;;;;;;;3.1;6.5;;;;;;;2.3;88.9;99910;;;;
2022/10/20 06:24:03;;;;;;;7.4;12;;;;;;;2.7;89.3;99920;;;;
2022/10/20 06:34:02;;;;;;;7.4;12;;;;;;;3;89.8;99920;;;;
2022/10/20 06:45:02;;;;;;;7.4;12;;;;;;;3.4;90.1;99920;;;;
2022/10/20 06:55:02;;;;;;;8;13;;;;;;;3.8;90.1;99910;;;;
2022/10/20 07:05:02;;;;;;;8;13;;;;;;;4.3;90.1;99920;;;;
2022/10/20 07:16:02;;;;;;;8;13;;;;;;;4.9;90.1;99910;;;;
2022/10/20 07:26:02;;;;;;;7.6;11.9;;;;;;;5.5;90.2;99900;;;;
2022/10/20 07:36:02;;;;;;;7.6;11.9;;;;;;;6;89.6;99890;;;;
2022/10/20 07:46:02;;;;;;;7.6;11.9;;;;;;;6.5;87.4;99890;;;;
2022/10/20 07:57:02;;;;;;;8.1;11.9;;;;;;;6.9;86.3;99890;;;;
2022/10/20 08:07:02;;;;;;;8.1;11.9;;;;;;;7.3;84.3;99880;;;;
2022/10/20 08:18:02;;;;;;;8.1;11.9;;;;;;;7.8;83.4;99890;;;;
2022/10/20 08:29:02;;;;;;;4.8;7.6;;;;;;;8.1;80.5;99890;;;;
2022/10/20 08:39:02;;;;;;;4.8;7.6;;;;;;;8.5;78.2;99890;;;;
2022/10/20 08:49:02;;;;;;;4.7;8.5;;;;;;;8.9;77.1;99890;;;;
2022/10/20 09:00:02;;;;;;;4.7;8.5;;;;;;;9;75.2;99890;;;;
2022/10/20 09:10:02;;;;;;;4.7;8.5;;;;;;;9.3;73.9;99880;;;;
2022/10/20 09:21:02;;;;;;;3.6;6.9;;;;;;;9.5;73.6;99860;;;;
2022/10/20 09:31:02;;;;;;;3.6;6.9;;;;;;;9.6;70.4;99860;;;;
2022/10/20 09:41:02;;;;;;;3.6;6.9;;;;;;;9.8;68.2;99850;;;;
2022/10/20 09:51:02;;;;;;;2.1;4.6;;;;;;;10;66.7;99840;;;;
2022/10/20 10:01:02;;;;;;;2.1;4.6;;;;;;;10;67;99840;;;;
2022/10/20 10:11:02;;;;;;;2.1;4.6;;;;;;;10.4;65.8;99830;;;;
2022/10/20 10:21:02;;;;;;;2.7;5.2;;;;;;;10.6;66.3;99830;;;;
2022/10/20 10:32:02;;;;;;;2.7;5.2;;;;;;;10.9;65.9;99820;;;;
2022/10/20 10:42:02;;;;;;;2.7;5.2;;;;;;;11.1;64.8;99810;;;;
2022/10/20 10:53:02;;;;;;;2.9;5.5;;;;;;;11.3;65.8;99800;;;;
2022/10/20 11:04:02;;;;;;;2.9;5.5;;;;;;;11.4;64.9;99790;;;;
2022/10/20 11:14:02;;;;;;;2.9;5.5;;;;;;;11.3;63.1;99780;;;;
2022/10/20 11:25:02;;;;;;;2;4.3;;;;;;;11.5;63.3;99770;;;;
2022/10/20 11:36:02;;;;;;;2;4.3;;;;;;;11.5;61.9;99750;;;;
2022/10/20 11:47:02;;;;;;;2;4.3;;;;;;;11.6;61.2;99730;;;;
2022/10/20 11:57:02;;;;;;;1.7;3.4;;;;;;;11.6;60.9;99730;;;;
2022/10/20 12:08:02;;;;;;;1.7;3.4;;;;;;;11.6;61;99710;;;;
2022/10/20 12:19:03;;;;;;;1.6;2.8;;;;;;;11.5;58.3;99700;;;;
2022/10/20 12:30:02;;;;;;;1.6;2.8;;;;;;;11.6;58.7;99700;;;;
2022/10/20 12:41:02;;;;;;;1.6;2.8;;;;;;;11.6;58.4;99690;;;;
2022/10/20 12:52:02;;;;;;;1.3;3.2;;;;;;;11.6;57.3;99670;;;;
2022/10/20 13:03:02;;;;;;;1.3;3.2;;;;;;;11.6;59.3;99670;;;;
2022/10/20 13:13:02;;;;;;;1.3;3.2;;;;;;;11.6;58.8;99660;;;;
2022/10/20 13:24:02;;;;;;;1.9;4.3;;;;;;;11.6;60.2;99660;;;;
2022/10/20 13:34:02;;;;;;;1.9;4.3;;;;;;;11.6;60.5;99650;;;;
2022/10/20 13:45:02;;;;;;;1.9;4.3;;;;;;;11.6;61.3;99650;;;;
2022/10/20 13:55:02;;;;;;;1.8;3.4;;;;;;;11.4;61.1;99640;;;;
2022/10/20 14:05:02;;;;;;;1.8;3.4;;;;;;;11.1;61.4;99630;;;;
2022/10/20 14:16:02;;;;;;;1.8;3.4;;;;;;;11.3;61.9;99640;;;;
2022/10/20 14:26:02;;;;;;;2.6;4.7;;;;;;;11;62.4;99630;;;;
2022/10/20 14:36:03;;;;;;;2.6;4.7;;;;;;;10.8;62.4;99620;;;;
2022/10/20 14:47:04;;;;;;;2.6;4.7;;;;;;;10.4;63.4;99620;;;;
2022/10/20 14:57:02;;;;;;;2.4;5.4;;;;;;;10.1;64.3;99610;;;;
2022/10/20 15:08:02;;;;;;;2.4;5.4;;;;;;;9.8;65.4;99600;;;;
2022/10/20 15:18:02;;;;;;;5;9.1;;;;;;;9.4;67.1;99590;;;;
2022/10/20 15:29:03;;;;;;;5;9.1;;;;;;;9;68;99580;;;;
2022/10/20 15:40:02;;;;;;;5;9.1;;;;;;;8.7;68.7;99570;;;;
2022/10/20 15:51:02;;;;;;;9.6;15.2;;;;;;;8.4;69.3;99570;;;;
2022/10/20 16:01:02;;;;;;;9.6;15.2;;;;;;;8;70.1;99560;;;;
2022/10/20 16:12:02;;;;;;;9.6;15.2;;;;;;;7.6;71.8;99560;;;;
2022/10/20 16:22:02;;;;;;;4.4;8.5;;;;;;;7.4;72.5;99570;;;;
2022/10/20 16:32:02;;;;;;;4.4;8.5;;;;;;;7.2;73.5;99580;;;;
2022/10/20 16:43:02;;;;;;;4.4;8.5;;;;;;;7;74.3;99580;;;;
2022/10/20 16:53:02;;;;;;;6.8;11.7;;;;;;;6.8;75.3;99580;;;;
2022/10/20 17:03:02;;;;;;;6.8;11.7;;;;;;;6.6;75.9;99580;;;;
2022/10/20 17:13:02;;;;;;;6.8;11.7;;;;;;;6.4;76.1;99580;;;;
2022/10/20 17:24:02;;;;;;;8.7;13.4;;;;;;;6.2;76.9;99580;;;;
2022/10/20 17:35:02;;;;;;;8.7;13.4;;;;;;;6.1;77;99580;;;;
2022/10/20 17:45:02;;;;;;;8.7;13.4;;;;;;;5.9;77.1;99570;;;;
2022/10/20 17:55:02;;;;;;;9.4;17.3;;;;;;;5.7;77.5;99570;;;;
2022/10/20 18:05:02;;;;;;;9.4;17.3;;;;;;;5.6;77.7;99560;;;;
2022/10/20 18:16:02;;;;;;;9.4;17.3;;;;;;;5.4;78;99570;;;;
2022/10/20 18:26:02;;;;;;;12.6;23.7;;;;;;;5.2;78.5;99570;;;;
2022/10/20 18:37:02;;;;;;;12.6;23.7;;;;;;;4.9;78.5;99560;;;;
2022/10/20 18:48:03;;;;;;;12.3;20.7;;;;;;;4.6;79.8;99560;;;;
2022/10/20 18:59:02;;;;;;;12.3;20.7;;;;;;;4.4;81.6;99550;;;;
2022/10/20 19:10:02;;;;;;;12.3;20.7;;;;;;;4.2;81.9;99540;;;;
2022/10/20 19:21:02;;;;;;;9.2;16.1;;;;;;;4;82.3;99550;;;;
2022/10/20 19:31:02;;;;;;;9.2;16.1;;;;;;;3.8;82.2;99540;;;;
2022/10/20 19:41:02;;;;;;;9.2;16.1;;;;;;;3.6;82.3;99550;;;;
2022/10/20 19:52:02;;;;;;;12.5;19.7;;;;;;;3.3;83.1;99550;;;;
2022/10/20 20:03:02;;;;;;;12.5;19.7;;;;;;;3.2;83.6;99540;;;;
2022/10/20 20:14:02;;;;;;;12.5;19.7;;;;;;;3.1;83.9;99540;;;;
2022/10/20 20:25:02;;;;;;;11.2;18.9;;;;;;;2.8;84.8;99520;;;;
2022/10/20 20:36:02;;;;;;;11.2;18.9;;;;;;;2.8;84.8;99520;;;;
2022/10/20 20:47:01;;;;;;;11.9;20.5;;;;;;;2.6;84.8;99510;;;;
2022/10/20 20:58:02;;;;;;;11.9;20.5;;;;;;;2.5;84.5;99510;;;;
2022/10/20 21:09:01;;;;;;;11.9;20.5;;;;;;;2.3;84.6;99510;;;;
2022/10/20 21:19:01;;;;;;;11.7;22;;;;;;;2.2;84.4;99490;;;;
2022/10/20 21:29:02;;;;;;;11.7;22;;;;;;;2;85.6;99470;;;;
2022/10/20 21:39:02;;;;;;;11.7;22;;;;;;;2;85.8;99470;;;;
2022/10/20 21:50:02;;;;;;;12.3;21.7;;;;;;;1.9;85.8;99460;;;;
2022/10/20 22:01:01;;;;;;;12.3;21.7;;;;;;;1.8;85.9;99450;;;;
2022/10/20 22:12:01;;;;;;;12.3;21.7;;;;;;;1.7;87.3;99440;;;;
2022/10/20 22:22:01;;;;;;;10.9;21.6;;;;;;;1.7;87.3;99450;;;;
2022/10/20 22:33:01;;;;;;;10.9;21.6;;;;;;;1.6;87.1;99420;;;;
2022/10/20 22:43:01;;;;;;;10.9;21.6;;;;;;;1.6;87.3;99410;;;;
2022/10/20 22:54:01;;;;;;;12.1;21.9;;;;;;;1.4;87.1;99410;;;;
2022/10/20 23:05:01;;;;;;;12.1;21.9;;;;;;;1.4;87;99410;;;;
2022/10/20 23:16:01;;;;;;;12.1;21.9;;;;;;;1.3;87;99420;;;;
2022/10/20 23:26:01;;;;;;;11.5;23.9;;;;;;;1.2;87.2;99430;;;;
2022/10/20 23:36:01;;;;;;;11.5;23.9;;;;;;;1.1;87.2;99420;;;;
2022/10/20 23:47:01;;;;;;;10.5;16.5;;;;;;;1;87;99410;;;;
2022/10/20 23:57:01;;;;;;;10.5;16.5;;;;;;;0.9;87;99390;;;;
